sensor_id;sensor_type;location;lat;lon;timestamp;P1;durP1;ratioP1;P2;durP2;ratioP2
15398;SDS011;7797;51.428;6.756;2023-12-20T00:01:46;10.30;;;6.37;;
15398;SDS011;7797;51.428;6.756;2023-12-20T00:04:13;10.40;;;6.40;;
15398;SDS011;7797;51.428;6.756;2023-12-20T00:06:40;10.10;;;6.20;;
15398;SDS011;7797;51.428;6.756;2023-12-20T00:09:07;7.80;;;5.27;;
15398;SDS011;7797;51.428;6.756;2023-12-20T00:11:34;7.97;;;6.00;;
15398;SDS011;7797;51.428;6.756;2023-12-20T00:14:00;8.50;;;5.67;;
15398;SDS011;7797;51.428;6.756;2023-12-20T00:16:27;9.07;;;6.50;;
15398;SDS011;7797;51.428;6.756;2023-12-20T00:18:54;9.20;;;5.60;;
15398;SDS011;7797;51.428;6.756;2023-12-20T00:21:21;10.43;;;6.40;;
15398;SDS011;7797;51.428;6.756;2023-12-20T00:23:47;8.27;;;5.80;;
15398;SDS011;7797;51.428;6.756;2023-12-20T00:26:15;10.03;;;5.53;;
15398;SDS011;7797;51.428;6.756;2023-12-20T00:28:42;8.03;;;5.43;;
15398;SDS011;7797;51.428;6.756;2023-12-20T00:31:09;9.27;;;5.73;;
15398;SDS011;7797;51.428;6.756;2023-12-20T00:33:36;9.40;;;5.67;;
15398;SDS011;7797;51.428;6.756;2023-12-20T00:36:03;6.80;;;4.93;;
15398;SDS011;7797;51.428;6.756;2023-12-20T00:38:30;6.93;;;4.80;;
15398;SDS011;7797;51.428;6.756;2023-12-20T00:40:57;8.23;;;4.53;;
15398;SDS011;7797;51.428;6.756;2023-12-20T00:43:24;7.50;;;4.67;;
15398;SDS011;7797;51.428;6.756;2023-12-20T00:45:51;8.63;;;5.03;;
15398;SDS011;7797;51.428;6.756;2023-12-20T00:48:18;7.97;;;4.70;;
15398;SDS011;7797;51.428;6.756;2023-12-20T00:50:44;8.97;;;5.33;;
15398;SDS011;7797;51.428;6.756;2023-12-20T00:53:11;8.40;;;5.50;;
15398;SDS011;7797;51.428;6.756;2023-12-20T00:55:38;11.10;;;5.30;;
15398;SDS011;7797;51.428;6.756;2023-12-20T00:58:05;9.23;;;5.30;;
15398;SDS011;7797;51.428;6.756;2023-12-20T01:00:32;8.57;;;4.87;;
15398;SDS011;7797;51.428;6.756;2023-12-20T01:02:59;7.90;;;4.70;;
15398;SDS011;7797;51.428;6.756;2023-12-20T01:05:25;8.97;;;5.17;;
15398;SDS011;7797;51.428;6.756;2023-12-20T01:07:52;8.13;;;5.40;;
15398;SDS011;7797;51.428;6.756;2023-12-20T01:10:19;9.20;;;5.77;;
15398;SDS011;7797;51.428;6.756;2023-12-20T01:12:46;6.03;;;4.53;;
15398;SDS011;7797;51.428;6.756;2023-12-20T01:15:13;6.90;;;5.10;;
15398;SDS011;7797;51.428;6.756;2023-12-20T01:17:40;9.37;;;5.57;;
15398;SDS011;7797;51.428;6.756;2023-12-20T01:20:07;7.73;;;5.67;;
15398;SDS011;7797;51.428;6.756;2023-12-20T01:22:34;7.97;;;4.70;;
15398;SDS011;7797;51.428;6.756;2023-12-20T01:25:02;7.00;;;4.87;;
15398;SDS011;7797;51.428;6.756;2023-12-20T01:27:29;9.30;;;5.43;;
15398;SDS011;7797;51.428;6.756;2023-12-20T01:29:57;11.33;;;5.00;;
15398;SDS011;7797;51.428;6.756;2023-12-20T01:32:24;6.73;;;4.60;;
15398;SDS011;7797;51.428;6.756;2023-12-20T01:34:51;9.80;;;5.13;;
15398;SDS011;7797;51.428;6.756;2023-12-20T01:37:18;7.23;;;4.20;;
15398;SDS011;7797;51.428;6.756;2023-12-20T01:39:45;11.17;;;4.97;;
15398;SDS011;7797;51.428;6.756;2023-12-20T01:42:11;7.30;;;4.00;;
15398;SDS011;7797;51.428;6.756;2023-12-20T01:44:38;7.67;;;4.77;;
15398;SDS011;7797;51.428;6.756;2023-12-20T01:47:05;11.03;;;4.60;;
15398;SDS011;7797;51.428;6.756;2023-12-20T01:49:32;7.07;;;4.50;;
15398;SDS011;7797;51.428;6.756;2023-12-20T01:51:59;9.90;;;5.10;;
15398;SDS011;7797;51.428;6.756;2023-12-20T01:54:26;8.37;;;5.20;;
15398;SDS011;7797;51.428;6.756;2023-12-20T01:56:53;6.87;;;4.37;;
15398;SDS011;7797;51.428;6.756;2023-12-20T01:59:20;6.90;;;4.63;;
15398;SDS011;7797;51.428;6.756;2023-12-20T02:01:47;9.63;;;5.40;;
15398;SDS011;7797;51.428;6.756;2023-12-20T02:04:14;7.50;;;4.70;;
15398;SDS011;7797;51.428;6.756;2023-12-20T02:06:41;8.83;;;4.77;;
15398;SDS011;7797;51.428;6.756;2023-12-20T02:09:09;8.93;;;4.80;;
15398;SDS011;7797;51.428;6.756;2023-12-20T02:11:35;9.13;;;5.00;;
15398;SDS011;7797;51.428;6.756;2023-12-20T02:14:02;6.80;;;4.43;;
15398;SDS011;7797;51.428;6.756;2023-12-20T02:16:29;9.50;;;5.07;;
15398;SDS011;7797;51.428;6.756;2023-12-20T02:18:56;10.13;;;5.10;;
15398;SDS011;7797;51.428;6.756;2023-12-20T02:21:24;8.73;;;5.30;;
15398;SDS011;7797;51.428;6.756;2023-12-20T02:23:52;7.07;;;5.40;;
15398;SDS011;7797;51.428;6.756;2023-12-20T02:26:18;6.67;;;4.57;;
15398;SDS011;7797;51.428;6.756;2023-12-20T02:28:45;9.23;;;5.07;;
15398;SDS011;7797;51.428;6.756;2023-12-20T02:31:12;8.33;;;4.67;;
15398;SDS011;7797;51.428;6.756;2023-12-20T02:33:39;12.13;;;5.07;;
15398;SDS011;7797;51.428;6.756;2023-12-20T02:36:06;7.20;;;4.47;;
15398;SDS011;7797;51.428;6.756;2023-12-20T02:38:33;14.43;;;4.80;;
15398;SDS011;7797;51.428;6.756;2023-12-20T02:41:00;6.90;;;4.30;;
15398;SDS011;7797;51.428;6.756;2023-12-20T02:43:27;10.23;;;4.33;;
15398;SDS011;7797;51.428;6.756;2023-12-20T02:45:54;8.83;;;4.33;;
15398;SDS011;7797;51.428;6.756;2023-12-20T02:48:21;12.57;;;4.90;;
15398;SDS011;7797;51.428;6.756;2023-12-20T02:50:48;8.53;;;3.77;;
15398;SDS011;7797;51.428;6.756;2023-12-20T02:53:15;9.83;;;3.93;;
15398;SDS011;7797;51.428;6.756;2023-12-20T02:55:42;8.67;;;3.50;;
15398;SDS011;7797;51.428;6.756;2023-12-20T02:58:09;5.30;;;3.67;;
15398;SDS011;7797;51.428;6.756;2023-12-20T03:00:35;6.77;;;3.20;;
15398;SDS011;7797;51.428;6.756;2023-12-20T03:03:02;8.33;;;3.77;;
15398;SDS011;7797;51.428;6.756;2023-12-20T03:05:29;8.43;;;3.10;;
15398;SDS011;7797;51.428;6.756;2023-12-20T03:07:56;6.03;;;3.20;;
15398;SDS011;7797;51.428;6.756;2023-12-20T03:10:23;7.67;;;3.40;;
15398;SDS011;7797;51.428;6.756;2023-12-20T03:12:52;10.50;;;3.47;;
15398;SDS011;7797;51.428;6.756;2023-12-20T03:15:19;7.50;;;3.17;;
15398;SDS011;7797;51.428;6.756;2023-12-20T03:17:46;6.43;;;3.23;;
15398;SDS011;7797;51.428;6.756;2023-12-20T03:20:13;9.53;;;3.00;;
15398;SDS011;7797;51.428;6.756;2023-12-20T03:22:40;7.67;;;3.07;;
15398;SDS011;7797;51.428;6.756;2023-12-20T03:25:07;5.53;;;2.70;;
15398;SDS011;7797;51.428;6.756;2023-12-20T03:27:36;5.80;;;2.40;;
15398;SDS011;7797;51.428;6.756;2023-12-20T03:30:04;8.63;;;2.50;;
15398;SDS011;7797;51.428;6.756;2023-12-20T03:32:32;6.67;;;2.40;;
15398;SDS011;7797;51.428;6.756;2023-12-20T03:34:59;6.33;;;2.33;;
15398;SDS011;7797;51.428;6.756;2023-12-20T03:37:26;8.63;;;2.73;;
15398;SDS011;7797;51.428;6.756;2023-12-20T03:39:53;8.07;;;2.47;;
15398;SDS011;7797;51.428;6.756;2023-12-20T03:42:20;7.80;;;2.20;;
15398;SDS011;7797;51.428;6.756;2023-12-20T03:44:47;2.83;;;2.00;;
15398;SDS011;7797;51.428;6.756;2023-12-20T03:47:14;4.93;;;2.30;;
15398;SDS011;7797;51.428;6.756;2023-12-20T03:49:40;4.30;;;2.30;;
15398;SDS011;7797;51.428;6.756;2023-12-20T03:52:07;4.57;;;2.30;;
15398;SDS011;7797;51.428;6.756;2023-12-20T03:54:37;3.53;;;2.07;;
15398;SDS011;7797;51.428;6.756;2023-12-20T03:57:04;6.27;;;2.43;;
15398;SDS011;7797;51.428;6.756;2023-12-20T03:59:34;8.23;;;2.20;;
15398;SDS011;7797;51.428;6.756;2023-12-20T04:02:03;8.80;;;2.10;;
15398;SDS011;7797;51.428;6.756;2023-12-20T04:04:30;5.97;;;2.03;;
15398;SDS011;7797;51.428;6.756;2023-12-20T04:06:57;4.93;;;1.97;;
15398;SDS011;7797;51.428;6.756;2023-12-20T04:09:24;8.30;;;2.20;;
15398;SDS011;7797;51.428;6.756;2023-12-20T04:11:51;5.63;;;2.33;;
15398;SDS011;7797;51.428;6.756;2023-12-20T04:14:18;9.30;;;2.30;;
15398;SDS011;7797;51.428;6.756;2023-12-20T04:16:44;8.73;;;2.10;;
15398;SDS011;7797;51.428;6.756;2023-12-20T04:19:13;8.20;;;2.20;;
15398;SDS011;7797;51.428;6.756;2023-12-20T04:21:40;6.33;;;2.23;;
15398;SDS011;7797;51.428;6.756;2023-12-20T04:24:07;5.03;;;2.37;;
15398;SDS011;7797;51.428;6.756;2023-12-20T04:26:34;9.43;;;2.30;;
15398;SDS011;7797;51.428;6.756;2023-12-20T04:29:01;5.53;;;2.53;;
15398;SDS011;7797;51.428;6.756;2023-12-20T04:31:28;8.20;;;2.70;;
15398;SDS011;7797;51.428;6.756;2023-12-20T04:33:55;8.47;;;2.33;;
15398;SDS011;7797;51.428;6.756;2023-12-20T04:36:22;6.73;;;2.63;;
15398;SDS011;7797;51.428;6.756;2023-12-20T04:38:48;6.80;;;2.23;;
15398;SDS011;7797;51.428;6.756;2023-12-20T04:41:15;7.63;;;2.50;;
15398;SDS011;7797;51.428;6.756;2023-12-20T04:43:42;8.30;;;2.80;;
15398;SDS011;7797;51.428;6.756;2023-12-20T04:46:09;8.83;;;2.77;;
15398;SDS011;7797;51.428;6.756;2023-12-20T04:48:36;6.83;;;2.43;;
15398;SDS011;7797;51.428;6.756;2023-12-20T04:51:03;12.93;;;3.67;;
15398;SDS011;7797;51.428;6.756;2023-12-20T04:53:30;9.23;;;3.17;;
15398;SDS011;7797;51.428;6.756;2023-12-20T04:55:56;8.50;;;3.20;;
15398;SDS011;7797;51.428;6.756;2023-12-20T04:58:23;10.03;;;3.23;;
15398;SDS011;7797;51.428;6.756;2023-12-20T05:00:50;8.33;;;3.40;;
15398;SDS011;7797;51.428;6.756;2023-12-20T05:03:17;6.93;;;3.30;;
15398;SDS011;7797;51.428;6.756;2023-12-20T05:05:44;6.43;;;3.20;;
15398;SDS011;7797;51.428;6.756;2023-12-20T05:08:11;6.13;;;3.30;;
15398;SDS011;7797;51.428;6.756;2023-12-20T05:10:37;6.93;;;3.27;;
15398;SDS011;7797;51.428;6.756;2023-12-20T05:13:06;7.67;;;3.50;;
15398;SDS011;7797;51.428;6.756;2023-12-20T05:15:34;11.17;;;3.47;;
15398;SDS011;7797;51.428;6.756;2023-12-20T05:18:01;7.23;;;3.20;;
15398;SDS011;7797;51.428;6.756;2023-12-20T05:20:28;6.73;;;3.77;;
15398;SDS011;7797;51.428;6.756;2023-12-20T05:22:54;11.33;;;3.87;;
15398;SDS011;7797;51.428;6.756;2023-12-20T05:25:21;8.07;;;4.20;;
15398;SDS011;7797;51.428;6.756;2023-12-20T05:27:48;8.30;;;3.40;;
15398;SDS011;7797;51.428;6.756;2023-12-20T05:30:15;9.27;;;4.03;;
15398;SDS011;7797;51.428;6.756;2023-12-20T05:32:42;10.43;;;4.13;;
15398;SDS011;7797;51.428;6.756;2023-12-20T05:35:09;7.10;;;4.00;;
15398;SDS011;7797;51.428;6.756;2023-12-20T05:37:36;6.43;;;3.33;;
15398;SDS011;7797;51.428;6.756;2023-12-20T05:40:03;10.30;;;3.83;;
15398;SDS011;7797;51.428;6.756;2023-12-20T05:42:31;11.43;;;4.00;;
15398;SDS011;7797;51.428;6.756;2023-12-20T05:44:57;9.87;;;3.63;;
15398;SDS011;7797;51.428;6.756;2023-12-20T05:47:24;8.03;;;3.30;;
15398;SDS011;7797;51.428;6.756;2023-12-20T05:49:51;6.80;;;3.23;;
15398;SDS011;7797;51.428;6.756;2023-12-20T05:52:18;6.13;;;3.27;;
15398;SDS011;7797;51.428;6.756;2023-12-20T05:54:45;12.23;;;3.60;;
15398;SDS011;7797;51.428;6.756;2023-12-20T05:57:12;10.87;;;4.20;;
15398;SDS011;7797;51.428;6.756;2023-12-20T05:59:38;7.77;;;3.30;;
15398;SDS011;7797;51.428;6.756;2023-12-20T06:02:06;9.80;;;3.60;;
15398;SDS011;7797;51.428;6.756;2023-12-20T06:04:33;8.97;;;3.60;;
15398;SDS011;7797;51.428;6.756;2023-12-20T06:06:59;8.07;;;3.80;;
15398;SDS011;7797;51.428;6.756;2023-12-20T06:09:27;11.80;;;3.90;;
15398;SDS011;7797;51.428;6.756;2023-12-20T06:11:56;11.67;;;3.70;;
15398;SDS011;7797;51.428;6.756;2023-12-20T06:14:23;8.60;;;3.90;;
15398;SDS011;7797;51.428;6.756;2023-12-20T06:16:50;9.37;;;3.47;;
15398;SDS011;7797;51.428;6.756;2023-12-20T06:19:17;9.17;;;3.97;;
15398;SDS011;7797;51.428;6.756;2023-12-20T06:21:44;12.17;;;4.00;;
15398;SDS011;7797;51.428;6.756;2023-12-20T06:24:11;8.43;;;3.63;;
15398;SDS011;7797;51.428;6.756;2023-12-20T06:26:38;12.67;;;3.93;;
15398;SDS011;7797;51.428;6.756;2023-12-20T06:29:05;10.83;;;3.87;;
15398;SDS011;7797;51.428;6.756;2023-12-20T06:31:32;10.67;;;4.17;;
15398;SDS011;7797;51.428;6.756;2023-12-20T06:33:59;14.33;;;3.93;;
15398;SDS011;7797;51.428;6.756;2023-12-20T06:36:27;11.00;;;3.53;;
15398;SDS011;7797;51.428;6.756;2023-12-20T06:38:54;8.47;;;3.63;;
15398;SDS011;7797;51.428;6.756;2023-12-20T06:41:20;11.63;;;4.17;;
15398;SDS011;7797;51.428;6.756;2023-12-20T06:43:47;11.17;;;3.90;;
15398;SDS011;7797;51.428;6.756;2023-12-20T06:46:16;10.73;;;3.47;;
15398;SDS011;7797;51.428;6.756;2023-12-20T06:48:44;12.90;;;3.70;;
15398;SDS011;7797;51.428;6.756;2023-12-20T06:51:14;10.37;;;3.60;;
15398;SDS011;7797;51.428;6.756;2023-12-20T06:53:42;9.73;;;3.63;;
15398;SDS011;7797;51.428;6.756;2023-12-20T06:56:10;11.90;;;4.33;;
15398;SDS011;7797;51.428;6.756;2023-12-20T06:58:41;7.13;;;3.63;;
15398;SDS011;7797;51.428;6.756;2023-12-20T07:01:14;7.17;;;3.23;;
15398;SDS011;7797;51.428;6.756;2023-12-20T07:03:42;9.93;;;3.63;;
15398;SDS011;7797;51.428;6.756;2023-12-20T07:06:09;8.90;;;3.27;;
15398;SDS011;7797;51.428;6.756;2023-12-20T07:08:41;10.73;;;3.60;;
15398;SDS011;7797;51.428;6.756;2023-12-20T07:11:07;12.17;;;3.57;;
15398;SDS011;7797;51.428;6.756;2023-12-20T07:13:34;10.70;;;3.23;;
15398;SDS011;7797;51.428;6.756;2023-12-20T07:16:01;10.23;;;3.43;;
15398;SDS011;7797;51.428;6.756;2023-12-20T07:18:28;6.43;;;3.00;;
15398;SDS011;7797;51.428;6.756;2023-12-20T07:20:55;7.23;;;3.17;;
15398;SDS011;7797;51.428;6.756;2023-12-20T07:23:22;6.37;;;3.03;;
15398;SDS011;7797;51.428;6.756;2023-12-20T07:25:49;7.40;;;3.50;;
15398;SDS011;7797;51.428;6.756;2023-12-20T07:28:15;9.77;;;3.73;;
15398;SDS011;7797;51.428;6.756;2023-12-20T07:30:42;8.63;;;4.07;;
15398;SDS011;7797;51.428;6.756;2023-12-20T07:33:09;11.37;;;2.93;;
15398;SDS011;7797;51.428;6.756;2023-12-20T07:35:39;10.17;;;3.47;;
15398;SDS011;7797;51.428;6.756;2023-12-20T07:38:06;8.30;;;3.37;;
15398;SDS011;7797;51.428;6.756;2023-12-20T07:40:33;11.70;;;3.60;;
15398;SDS011;7797;51.428;6.756;2023-12-20T07:43:00;10.80;;;3.70;;
15398;SDS011;7797;51.428;6.756;2023-12-20T07:45:27;10.43;;;3.10;;
15398;SDS011;7797;51.428;6.756;2023-12-20T07:47:54;11.20;;;3.27;;
15398;SDS011;7797;51.428;6.756;2023-12-20T07:50:27;6.53;;;3.13;;
15398;SDS011;7797;51.428;6.756;2023-12-20T07:52:54;9.27;;;3.13;;
15398;SDS011;7797;51.428;6.756;2023-12-20T07:55:21;8.77;;;3.00;;
15398;SDS011;7797;51.428;6.756;2023-12-20T07:57:54;12.10;;;3.77;;
15398;SDS011;7797;51.428;6.756;2023-12-20T08:00:21;6.87;;;3.37;;
15398;SDS011;7797;51.428;6.756;2023-12-20T08:02:48;9.83;;;3.67;;
15398;SDS011;7797;51.428;6.756;2023-12-20T08:05:15;11.00;;;4.30;;
15398;SDS011;7797;51.428;6.756;2023-12-20T08:07:44;13.43;;;4.27;;
15398;SDS011;7797;51.428;6.756;2023-12-20T08:10:11;11.33;;;4.03;;
15398;SDS011;7797;51.428;6.756;2023-12-20T08:12:38;9.80;;;4.03;;
15398;SDS011;7797;51.428;6.756;2023-12-20T08:15:06;10.53;;;3.87;;
15398;SDS011;7797;51.428;6.756;2023-12-20T08:17:33;8.53;;;3.63;;
15398;SDS011;7797;51.428;6.756;2023-12-20T08:20:00;7.70;;;3.47;;
15398;SDS011;7797;51.428;6.756;2023-12-20T08:22:27;6.90;;;3.50;;
15398;SDS011;7797;51.428;6.756;2023-12-20T08:24:54;12.37;;;4.10;;
15398;SDS011;7797;51.428;6.756;2023-12-20T08:27:21;13.10;;;4.00;;
15398;SDS011;7797;51.428;6.756;2023-12-20T08:29:48;8.03;;;3.40;;
15398;SDS011;7797;51.428;6.756;2023-12-20T08:32:16;9.77;;;3.47;;
15398;SDS011;7797;51.428;6.756;2023-12-20T08:34:42;6.20;;;3.60;;
15398;SDS011;7797;51.428;6.756;2023-12-20T08:37:09;6.13;;;3.43;;
15398;SDS011;7797;51.428;6.756;2023-12-20T08:39:36;11.90;;;4.03;;
15398;SDS011;7797;51.428;6.756;2023-12-20T08:42:03;6.27;;;3.47;;
15398;SDS011;7797;51.428;6.756;2023-12-20T08:44:30;9.90;;;3.70;;
15398;SDS011;7797;51.428;6.756;2023-12-20T08:46:57;9.13;;;2.80;;
15398;SDS011;7797;51.428;6.756;2023-12-20T08:49:24;8.07;;;3.07;;
15398;SDS011;7797;51.428;6.756;2023-12-20T08:51:52;9.80;;;3.37;;
15398;SDS011;7797;51.428;6.756;2023-12-20T08:54:19;11.80;;;3.53;;
15398;SDS011;7797;51.428;6.756;2023-12-20T08:56:46;12.07;;;3.03;;
15398;SDS011;7797;51.428;6.756;2023-12-20T08:59:12;8.73;;;2.80;;
15398;SDS011;7797;51.428;6.756;2023-12-20T09:01:39;6.63;;;2.97;;
15398;SDS011;7797;51.428;6.756;2023-12-20T09:04:06;7.17;;;2.83;;
15398;SDS011;7797;51.428;6.756;2023-12-20T09:06:33;8.90;;;2.70;;
15398;SDS011;7797;51.428;6.756;2023-12-20T09:09:00;6.57;;;2.70;;
15398;SDS011;7797;51.428;6.756;2023-12-20T09:11:27;7.63;;;2.77;;
15398;SDS011;7797;51.428;6.756;2023-12-20T09:13:54;11.10;;;3.17;;
15398;SDS011;7797;51.428;6.756;2023-12-20T09:16:20;9.90;;;2.90;;
15398;SDS011;7797;51.428;6.756;2023-12-20T09:18:47;10.13;;;2.80;;
15398;SDS011;7797;51.428;6.756;2023-12-20T09:21:14;12.90;;;2.80;;
15398;SDS011;7797;51.428;6.756;2023-12-20T09:23:41;6.20;;;3.10;;
15398;SDS011;7797;51.428;6.756;2023-12-20T09:26:08;8.03;;;3.20;;
15398;SDS011;7797;51.428;6.756;2023-12-20T09:28:35;6.13;;;2.93;;
15398;SDS011;7797;51.428;6.756;2023-12-20T09:31:04;11.33;;;3.20;;
15398;SDS011;7797;51.428;6.756;2023-12-20T09:33:35;7.80;;;3.00;;
15398;SDS011;7797;51.428;6.756;2023-12-20T09:36:02;9.57;;;3.07;;
15398;SDS011;7797;51.428;6.756;2023-12-20T09:38:29;8.10;;;3.10;;
15398;SDS011;7797;51.428;6.756;2023-12-20T09:40:56;8.67;;;3.03;;
15398;SDS011;7797;51.428;6.756;2023-12-20T09:43:23;5.57;;;2.83;;
15398;SDS011;7797;51.428;6.756;2023-12-20T09:45:52;8.27;;;2.70;;
15398;SDS011;7797;51.428;6.756;2023-12-20T09:48:20;5.97;;;2.83;;
15398;SDS011;7797;51.428;6.756;2023-12-20T09:50:47;6.63;;;2.93;;
15398;SDS011;7797;51.428;6.756;2023-12-20T09:53:19;11.80;;;3.40;;
15398;SDS011;7797;51.428;6.756;2023-12-20T09:55:46;8.23;;;3.50;;
15398;SDS011;7797;51.428;6.756;2023-12-20T09:58:13;6.57;;;2.83;;
15398;SDS011;7797;51.428;6.756;2023-12-20T10:00:40;10.13;;;2.97;;
15398;SDS011;7797;51.428;6.756;2023-12-20T10:03:07;8.20;;;3.17;;
15398;SDS011;7797;51.428;6.756;2023-12-20T10:05:35;7.33;;;3.10;;
15398;SDS011;7797;51.428;6.756;2023-12-20T10:08:02;6.93;;;2.60;;
15398;SDS011;7797;51.428;6.756;2023-12-20T10:10:30;9.53;;;3.20;;
15398;SDS011;7797;51.428;6.756;2023-12-20T10:13:10;5.00;;;2.50;;
15398;SDS011;7797;51.428;6.756;2023-12-20T10:15:38;8.40;;;2.83;;
15398;SDS011;7797;51.428;6.756;2023-12-20T10:18:05;11.57;;;3.00;;
15398;SDS011;7797;51.428;6.756;2023-12-20T10:20:33;6.80;;;2.90;;
15398;SDS011;7797;51.428;6.756;2023-12-20T10:23:00;7.37;;;2.80;;
15398;SDS011;7797;51.428;6.756;2023-12-20T10:25:28;5.97;;;3.13;;
15398;SDS011;7797;51.428;6.756;2023-12-20T10:28:09;10.90;;;2.97;;
15398;SDS011;7797;51.428;6.756;2023-12-20T10:30:45;9.07;;;2.80;;
15398;SDS011;7797;51.428;6.756;2023-12-20T10:33:12;4.13;;;2.60;;
15398;SDS011;7797;51.428;6.756;2023-12-20T10:35:40;10.07;;;3.30;;
15398;SDS011;7797;51.428;6.756;2023-12-20T10:38:12;7.33;;;2.50;;
15398;SDS011;7797;51.428;6.756;2023-12-20T10:40:41;3.73;;;2.50;;
15398;SDS011;7797;51.428;6.756;2023-12-20T10:43:09;5.60;;;3.07;;
15398;SDS011;7797;51.428;6.756;2023-12-20T10:45:37;7.27;;;2.83;;
15398;SDS011;7797;51.428;6.756;2023-12-20T10:48:04;5.90;;;2.80;;
15398;SDS011;7797;51.428;6.756;2023-12-20T10:50:31;9.70;;;2.90;;
15398;SDS011;7797;51.428;6.756;2023-12-20T10:52:59;6.83;;;2.83;;
15398;SDS011;7797;51.428;6.756;2023-12-20T10:55:26;7.30;;;2.93;;
15398;SDS011;7797;51.428;6.756;2023-12-20T10:57:54;5.67;;;2.87;;
15398;SDS011;7797;51.428;6.756;2023-12-20T11:00:27;7.60;;;3.00;;
15398;SDS011;7797;51.428;6.756;2023-12-20T11:02:56;9.57;;;3.00;;
15398;SDS011;7797;51.428;6.756;2023-12-20T11:08:11;9.20;;;3.20;;
15398;SDS011;7797;51.428;6.756;2023-12-20T11:10:46;10.77;;;3.27;;
15398;SDS011;7797;51.428;6.756;2023-12-20T11:13:30;7.37;;;2.97;;
15398;SDS011;7797;51.428;6.756;2023-12-20T11:15:59;7.80;;;3.20;;
15398;SDS011;7797;51.428;6.756;2023-12-20T11:18:30;10.47;;;3.07;;
15398;SDS011;7797;51.428;6.756;2023-12-20T11:21:01;8.80;;;3.20;;
15398;SDS011;7797;51.428;6.756;2023-12-20T11:23:30;8.47;;;3.20;;
15398;SDS011;7797;51.428;6.756;2023-12-20T11:25:57;7.00;;;2.70;;
15398;SDS011;7797;51.428;6.756;2023-12-20T11:28:25;6.07;;;3.20;;
15398;SDS011;7797;51.428;6.756;2023-12-20T11:30:53;11.60;;;4.27;;
15398;SDS011;7797;51.428;6.756;2023-12-20T11:33:22;8.37;;;3.40;;
15398;SDS011;7797;51.428;6.756;2023-12-20T11:35:55;8.53;;;3.03;;
15398;SDS011;7797;51.428;6.756;2023-12-20T11:38:22;10.00;;;3.20;;
15398;SDS011;7797;51.428;6.756;2023-12-20T11:40:49;6.30;;;3.10;;
15398;SDS011;7797;51.428;6.756;2023-12-20T11:43:29;8.43;;;3.00;;
15398;SDS011;7797;51.428;6.756;2023-12-20T11:46:01;7.23;;;3.10;;
15398;SDS011;7797;51.428;6.756;2023-12-20T11:48:30;7.07;;;3.00;;
15398;SDS011;7797;51.428;6.756;2023-12-20T11:50:58;6.90;;;3.00;;
15398;SDS011;7797;51.428;6.756;2023-12-20T11:53:25;7.93;;;3.30;;
15398;SDS011;7797;51.428;6.756;2023-12-20T11:55:51;7.40;;;3.50;;
15398;SDS011;7797;51.428;6.756;2023-12-20T11:58:21;7.63;;;2.97;;
15398;SDS011;7797;51.428;6.756;2023-12-20T12:00:49;10.10;;;3.33;;
15398;SDS011;7797;51.428;6.756;2023-12-20T12:03:16;9.17;;;3.30;;
15398;SDS011;7797;51.428;6.756;2023-12-20T12:05:43;9.00;;;3.60;;
15398;SDS011;7797;51.428;6.756;2023-12-20T12:08:14;9.90;;;3.23;;
15398;SDS011;7797;51.428;6.756;2023-12-20T12:10:41;9.00;;;3.10;;
15398;SDS011;7797;51.428;6.756;2023-12-20T12:13:08;7.97;;;3.20;;
15398;SDS011;7797;51.428;6.756;2023-12-20T12:15:36;9.17;;;3.20;;
15398;SDS011;7797;51.428;6.756;2023-12-20T12:18:04;5.73;;;3.37;;
15398;SDS011;7797;51.428;6.756;2023-12-20T12:20:31;5.30;;;3.00;;
15398;SDS011;7797;51.428;6.756;2023-12-20T12:23:04;10.57;;;3.37;;
15398;SDS011;7797;51.428;6.756;2023-12-20T12:25:32;5.50;;;2.83;;
15398;SDS011;7797;51.428;6.756;2023-12-20T12:28:01;8.90;;;3.93;;
15398;SDS011;7797;51.428;6.756;2023-12-20T12:30:28;9.50;;;3.23;;
15398;SDS011;7797;51.428;6.756;2023-12-20T12:33:04;10.30;;;3.10;;
15398;SDS011;7797;51.428;6.756;2023-12-20T12:35:31;8.47;;;3.37;;
15398;SDS011;7797;51.428;6.756;2023-12-20T12:37:58;8.77;;;3.20;;
15398;SDS011;7797;51.428;6.756;2023-12-20T12:40:25;9.17;;;3.30;;
15398;SDS011;7797;51.428;6.756;2023-12-20T12:42:52;7.17;;;2.80;;
15398;SDS011;7797;51.428;6.756;2023-12-20T12:45:19;11.43;;;3.37;;
15398;SDS011;7797;51.428;6.756;2023-12-20T12:47:46;8.27;;;2.77;;
15398;SDS011;7797;51.428;6.756;2023-12-20T12:50:13;7.43;;;3.10;;
15398;SDS011;7797;51.428;6.756;2023-12-20T12:52:41;5.20;;;3.20;;
15398;SDS011;7797;51.428;6.756;2023-12-20T12:55:07;7.23;;;3.43;;
15398;SDS011;7797;51.428;6.756;2023-12-20T12:57:34;9.97;;;3.60;;
15398;SDS011;7797;51.428;6.756;2023-12-20T13:00:01;8.70;;;3.33;;
15398;SDS011;7797;51.428;6.756;2023-12-20T13:02:29;5.67;;;3.23;;
15398;SDS011;7797;51.428;6.756;2023-12-20T13:04:57;5.33;;;3.20;;
15398;SDS011;7797;51.428;6.756;2023-12-20T13:07:24;10.90;;;3.70;;
15398;SDS011;7797;51.428;6.756;2023-12-20T13:09:51;6.20;;;3.70;;
15398;SDS011;7797;51.428;6.756;2023-12-20T13:12:17;8.63;;;3.60;;
15398;SDS011;7797;51.428;6.756;2023-12-20T13:14:44;6.60;;;3.47;;
15398;SDS011;7797;51.428;6.756;2023-12-20T13:17:11;8.37;;;3.47;;
15398;SDS011;7797;51.428;6.756;2023-12-20T13:19:38;7.70;;;3.47;;
15398;SDS011;7797;51.428;6.756;2023-12-20T13:22:05;10.17;;;3.50;;
15398;SDS011;7797;51.428;6.756;2023-12-20T13:24:33;9.20;;;3.63;;
15398;SDS011;7797;51.428;6.756;2023-12-20T13:26:59;7.27;;;3.80;;
15398;SDS011;7797;51.428;6.756;2023-12-20T13:29:26;6.73;;;4.03;;
15398;SDS011;7797;51.428;6.756;2023-12-20T13:31:53;8.37;;;4.03;;
15398;SDS011;7797;51.428;6.756;2023-12-20T13:34:20;6.43;;;3.57;;
15398;SDS011;7797;51.428;6.756;2023-12-20T13:36:48;8.03;;;4.50;;
15398;SDS011;7797;51.428;6.756;2023-12-20T13:39:17;7.20;;;3.60;;
15398;SDS011;7797;51.428;6.756;2023-12-20T13:41:44;5.93;;;4.00;;
15398;SDS011;7797;51.428;6.756;2023-12-20T13:44:11;10.13;;;3.80;;
15398;SDS011;7797;51.428;6.756;2023-12-20T13:46:39;13.60;;;4.73;;
15398;SDS011;7797;51.428;6.756;2023-12-20T13:49:07;9.93;;;4.43;;
15398;SDS011;7797;51.428;6.756;2023-12-20T13:51:34;8.43;;;4.07;;
15398;SDS011;7797;51.428;6.756;2023-12-20T13:54:02;10.93;;;4.70;;
15398;SDS011;7797;51.428;6.756;2023-12-20T13:56:29;7.87;;;3.80;;
15398;SDS011;7797;51.428;6.756;2023-12-20T13:58:56;6.87;;;4.03;;
15398;SDS011;7797;51.428;6.756;2023-12-20T14:01:23;10.47;;;4.60;;
15398;SDS011;7797;51.428;6.756;2023-12-20T14:03:50;9.37;;;4.10;;
15398;SDS011;7797;51.428;6.756;2023-12-20T14:06:17;7.30;;;4.40;;
15398;SDS011;7797;51.428;6.756;2023-12-20T14:08:44;9.50;;;4.50;;
15398;SDS011;7797;51.428;6.756;2023-12-20T14:11:11;8.37;;;4.60;;
15398;SDS011;7797;51.428;6.756;2023-12-20T14:13:39;9.13;;;4.43;;
15398;SDS011;7797;51.428;6.756;2023-12-20T14:16:05;9.50;;;4.80;;
15398;SDS011;7797;51.428;6.756;2023-12-20T14:18:32;10.30;;;4.40;;
15398;SDS011;7797;51.428;6.756;2023-12-20T14:20:59;7.03;;;4.90;;
15398;SDS011;7797;51.428;6.756;2023-12-20T14:23:26;8.03;;;4.87;;
15398;SDS011;7797;51.428;6.756;2023-12-20T14:25:53;6.20;;;4.50;;
15398;SDS011;7797;51.428;6.756;2023-12-20T14:28:21;9.73;;;4.47;;
15398;SDS011;7797;51.428;6.756;2023-12-20T14:30:48;9.40;;;4.27;;
15398;SDS011;7797;51.428;6.756;2023-12-20T14:33:16;9.23;;;4.60;;
15398;SDS011;7797;51.428;6.756;2023-12-20T14:35:43;10.30;;;4.17;;
15398;SDS011;7797;51.428;6.756;2023-12-20T14:38:11;13.57;;;4.73;;
15398;SDS011;7797;51.428;6.756;2023-12-20T14:40:41;7.60;;;4.30;;
15398;SDS011;7797;51.428;6.756;2023-12-20T14:43:08;12.23;;;4.50;;
15398;SDS011;7797;51.428;6.756;2023-12-20T14:45:35;8.67;;;4.53;;
15398;SDS011;7797;51.428;6.756;2023-12-20T14:48:03;8.20;;;3.80;;
15398;SDS011;7797;51.428;6.756;2023-12-20T14:50:31;10.27;;;4.03;;
15398;SDS011;7797;51.428;6.756;2023-12-20T14:52:58;6.77;;;4.00;;
15398;SDS011;7797;51.428;6.756;2023-12-20T14:55:25;9.07;;;4.30;;
15398;SDS011;7797;51.428;6.756;2023-12-20T14:57:55;11.73;;;3.93;;
15398;SDS011;7797;51.428;6.756;2023-12-20T15:00:22;9.57;;;4.07;;
15398;SDS011;7797;51.428;6.756;2023-12-20T15:02:52;10.40;;;4.10;;